NCAR-RAP Real-Time Weather Data

Output produced by METARs form (12 August 2020  18:21 UTC)
found at http://weather.rap.ucar.edu/surface/
 
KVCT 121751Z 18007KT 10SM SCT065 34/23 A2997 RMK AO2 SLP147 T03440228 10344 20250 58007
KVCT 121651Z 20009KT 10SM FEW085 34/23 A2999 RMK AO2 SLP151 T03390233
KVCT 121551Z 19009KT 10SM FEW029 32/23 A3000 RMK AO2 SLP156 T03220233
KVCT 121451Z 21009KT 10SM FEW021 31/24 A2999 RMK AO2 SLP155 T03060244 51013
KVCT 121351Z 20006KT 10SM CLR 29/25 A2999 RMK AO2 SLP154 T02890250
KVCT 121251Z 00000KT 9SM CLR 27/24 A2997 RMK AO2 SLP147 T02670244
KVCT 121151Z 18003KT 9SM FEW019 25/24 A2996 RMK AO2 SLP142 T02500239 10272 20239 55002
KVCT 121051Z AUTO 17005KT 9SM CLR 24/23 A2995 RMK AO2 SLP142 T02440233 TSNO
KVCT 120951Z AUTO 05003KT 7SM CLR 25/23 A2996 RMK AO2 SLP143 T02500233 TSNO
KVCT 120851Z AUTO 16004KT 10SM CLR 26/24 A2996 RMK AO2 SLP143 T02610239 56001
KVCT 120751Z AUTO 17005KT 10SM CLR 26/24 A2996 RMK AO2 SLP143 T02610239
KVCT 120651Z AUTO 18007KT 10SM CLR 27/24 A2996 RMK AO2 SLP143 T02720244
KVCT 120551Z AUTO 17006KT 10SM CLR 27/24 A2996 RMK AO2 SLP143 T02720244 10322 20267 403610250 51006
KVCT 120451Z AUTO 16006KT 10SM FEW019 27/24 A2996 RMK AO2 SLP143 T02720244
KVCT 120351Z AUTO 17006KT 10SM CLR 27/24 A2996 RMK AO2 SLP145 T02720244
KVCT 120251Z AUTO 16008KT 10SM CLR 28/24 A2995 RMK AO2 SLP138 T02830244 53013
KVCT 120151Z 17009KT 10SM CLR 29/25 A2993 RMK AO2 SLP134 T02940250
KVCT 120051Z 16013KT 10SM CLR 31/23 A2992 RMK AO2 SLP129 T03060233
KVCT 112351Z 16014G23KT 10SM CLR 32/23 A2991 RMK AO2 SLP126 T03220233 10361 20322 55006
KVCT 112251Z 16013KT 10SM FEW090 34/23 A2991 RMK AO2 SLP124 T03390233
KVCT 112151Z 18016G22KT 10SM SCT040 34/24 A2991 RMK AO2 SLP126 T03440239